SAS818 EGKK-EKCH
Flight info
| Callsign | SAS818 |
|---|---|
| Flight time | N/A |
| Altitude | 35000 |
| Route | FRANE M604 PAAVO Q295 SOMVA DCT MAVAS DCT AGISU DCT TALSA P729 TUDLO |
| Aircraft | B738/M-SDE2E3FGHIRWXY/LB1 |
Departure
| Time | 2026-04-18 11:32 |
|---|---|
| Airport | London Gatwick Airport (EGKK) |
Arrival
| Time | N/A |
|---|---|
| Airport | Copenhagen Kastrup Airport (EKCH) |
| Time | Latitude | Longitude | Altitude | Speed | Heading |
|---|---|---|---|---|---|
| 2026-04-18 11:02 | 51.15860 | -0.17943 | 203 ft | 0 kts | 78° |
| 2026-04-18 11:14 | 51.15858 | -0.17963 | 210 ft | 2 kts | 78° |
| 2026-04-18 11:15 | 51.15854 | -0.17989 | 203 ft | 2 kts | 78° |
| 2026-04-18 11:15 | 51.15851 | -0.18014 | 207 ft | 2 kts | 78° |
| 2026-04-18 11:15 | 51.15847 | -0.18039 | 215 ft | 2 kts | 78° |
| 2026-04-18 11:15 | 51.15847 | -0.18064 | 215 ft | 2 kts | 109° |
| 2026-04-18 11:16 | 51.15858 | -0.18081 | 209 ft | 2 kts | 162° |
| 2026-04-18 11:16 | 51.15861 | -0.18082 | 207 ft | 0 kts | 162° |
| 2026-04-18 11:20 | 51.15858 | -0.18081 | 208 ft | 1 kts | 162° |
| 2026-04-18 11:20 | 51.15833 | -0.18071 | 211 ft | 6 kts | 166° |
| 2026-04-18 11:20 | 51.15771 | -0.18051 | 203 ft | 12 kts | 172° |
| 2026-04-18 11:20 | 51.15727 | -0.18038 | 206 ft | 7 kts | 159° |
| 2026-04-18 11:21 | 51.15699 | -0.17960 | 205 ft | 11 kts | 85° |
| 2026-04-18 11:21 | 51.15717 | -0.17833 | 203 ft | 13 kts | 77° |
| 2026-04-18 11:21 | 51.15742 | -0.17664 | 209 ft | 18 kts | 77° |
| 2026-04-18 11:21 | 51.15745 | -0.17514 | 212 ft | 9 kts | 126° |
| 2026-04-18 11:22 | 51.15676 | -0.17482 | 209 ft | 13 kts | 166° |
| 2026-04-18 11:22 | 51.15576 | -0.17444 | 208 ft | 17 kts | 166° |
| 2026-04-18 11:22 | 51.15473 | -0.17411 | 203 ft | 13 kts | 169° |
| 2026-04-18 11:22 | 51.15371 | -0.17377 | 214 ft | 17 kts | 167° |
| 2026-04-18 11:23 | 51.15299 | -0.17352 | 208 ft | 0 kts | 167° |
| 2026-04-18 11:23 | 51.15298 | -0.17351 | 203 ft | 1 kts | 167° |
| 2026-04-18 11:23 | 51.15274 | -0.17343 | 206 ft | 6 kts | 167° |
| 2026-04-18 11:23 | 51.15229 | -0.17298 | 207 ft | 9 kts | 142° |
| 2026-04-18 11:24 | 51.15187 | -0.17242 | 203 ft | 0 kts | 131° |
| 2026-04-18 11:24 | 51.15182 | -0.17214 | 206 ft | 4 kts | 95° |
| 2026-04-18 11:24 | 51.15209 | -0.17174 | 204 ft | 7 kts | 25° |
| 2026-04-18 11:25 | 51.15261 | -0.17122 | 212 ft | 2 kts | 57° |
| 2026-04-18 11:25 | 51.15269 | -0.17074 | 206 ft | 7 kts | 77° |
| 2026-04-18 11:25 | 51.15281 | -0.16975 | 203 ft | 11 kts | 79° |
| 2026-04-18 11:25 | 51.15283 | -0.16955 | 203 ft | 0 kts | 78° |
| 2026-04-18 11:27 | 51.15287 | -0.16929 | 203 ft | 5 kts | 78° |
| 2026-04-18 11:27 | 51.15289 | -0.16851 | 209 ft | 9 kts | 108° |
| 2026-04-18 11:27 | 51.15282 | -0.16835 | 205 ft | 0 kts | 126° |
| 2026-04-18 11:27 | 51.15282 | -0.16834 | 205 ft | 1 kts | 126° |
| 2026-04-18 11:28 | 51.15266 | -0.16816 | 210 ft | 5 kts | 162° |
| 2026-04-18 11:28 | 51.15237 | -0.16810 | 212 ft | 0 kts | 168° |
| 2026-04-18 11:30 | 51.15235 | -0.16809 | 212 ft | 2 kts | 168° |
| 2026-04-18 11:30 | 51.15207 | -0.16800 | 209 ft | 7 kts | 168° |
| 2026-04-18 11:30 | 51.15140 | -0.16805 | 201 ft | 13 kts | 206° |
| 2026-04-18 11:30 | 51.15109 | -0.16896 | 205 ft | 0 kts | 258° |
| 2026-04-18 11:31 | 51.15109 | -0.16902 | 206 ft | 2 kts | 258° |
| 2026-04-18 11:31 | 51.15091 | -0.17037 | 205 ft | 38 kts | 258° |
| 2026-04-18 11:31 | 51.14968 | -0.17927 | 208 ft | 123 kts | 258° |
| 2026-04-18 11:32 | 51.14725 | -0.19610 | 381 ft | 179 kts | 256° |
| 2026-04-18 11:32 | 51.14391 | -0.21565 | 1174 ft | 196 kts | 256° |
| 2026-04-18 11:32 | 51.14037 | -0.23700 | 2189 ft | 197 kts | 261° |
| 2026-04-18 11:32 | 51.13777 | -0.25926 | 2887 ft | 211 kts | 262° |
| 2026-04-18 11:33 | 51.13698 | -0.28258 | 3595 ft | 213 kts | 282° |
| 2026-04-18 11:33 | 51.14275 | -0.30370 | 3936 ft | 209 kts | 308° |
| 2026-04-18 11:33 | 51.15421 | -0.31875 | 3979 ft | 222 kts | 334° |
| 2026-04-18 11:33 | 51.16937 | -0.32364 | 3991 ft | 228 kts | 2° |
| 2026-04-18 11:34 | 51.18432 | -0.31538 | 3991 ft | 233 kts | 34° |
| 2026-04-18 11:34 | 51.19432 | -0.29505 | 3989 ft | 238 kts | 68° |
| 2026-04-18 11:34 | 51.19766 | -0.26930 | 4017 ft | 239 kts | 80° |
| 2026-04-18 11:34 | 51.19999 | -0.24288 | 4011 ft | 241 kts | 79° |
| 2026-04-18 11:35 | 51.20570 | -0.21693 | 4030 ft | 261 kts | 57° |
| 2026-04-18 11:35 | 51.21552 | -0.19183 | 4006 ft | 271 kts | 56° |
| 2026-04-18 11:35 | 51.22544 | -0.16669 | 4016 ft | 272 kts | 54° |
| 2026-04-18 11:35 | 51.23550 | -0.14097 | 4536 ft | 274 kts | 55° |
| 2026-04-18 11:36 | 51.24551 | -0.11510 | 5465 ft | 275 kts | 56° |
| 2026-04-18 11:36 | 51.25561 | -0.08880 | 6258 ft | 282 kts | 57° |
| 2026-04-18 11:36 | 51.26587 | -0.06185 | 7057 ft | 285 kts | 57° |
| 2026-04-18 11:36 | 51.27623 | -0.03447 | 7804 ft | 292 kts | 57° |
| 2026-04-18 11:37 | 51.28684 | -0.00628 | 8500 ft | 300 kts | 58° |
| 2026-04-18 11:37 | 51.29764 | 0.02252 | 9186 ft | 305 kts | 58° |
| 2026-04-18 11:37 | 51.30861 | 0.05188 | 9931 ft | 310 kts | 58° |
| 2026-04-18 11:37 | 51.31979 | 0.08190 | 10544 ft | 320 kts | 58° |
| 2026-04-18 11:38 | 51.33160 | 0.11363 | 10826 ft | 344 kts | 59° |
| 2026-04-18 11:38 | 51.34419 | 0.14752 | 11101 ft | 364 kts | 59° |
| 2026-04-18 11:38 | 51.35728 | 0.18282 | 11653 ft | 372 kts | 58° |
| 2026-04-18 11:38 | 51.37057 | 0.21876 | 12330 ft | 378 kts | 58° |
| 2026-04-18 11:39 | 51.38403 | 0.25519 | 13008 ft | 383 kts | 58° |
| 2026-04-18 11:39 | 51.39752 | 0.29177 | 13657 ft | 389 kts | 58° |
| 2026-04-18 11:39 | 51.41137 | 0.32940 | 14302 ft | 394 kts | 58° |
| 2026-04-18 11:39 | 51.42534 | 0.36738 | 14949 ft | 398 kts | 58° |
| 2026-04-18 11:40 | 51.43944 | 0.40579 | 15570 ft | 401 kts | 58° |
| 2026-04-18 11:40 | 51.45367 | 0.44459 | 16197 ft | 405 kts | 58° |
| 2026-04-18 11:40 | 51.46802 | 0.48380 | 16800 ft | 410 kts | 59° |
| 2026-04-18 11:40 | 51.48251 | 0.52344 | 17410 ft | 414 kts | 59° |
| 2026-04-18 11:41 | 51.49714 | 0.56354 | 18011 ft | 418 kts | 59° |
| 2026-04-18 11:41 | 51.51191 | 0.60408 | 18606 ft | 422 kts | 59° |
| 2026-04-18 11:41 | 51.52681 | 0.64503 | 19125 ft | 426 kts | 59° |
| 2026-04-18 11:41 | 51.54178 | 0.68627 | 19677 ft | 429 kts | 59° |
| 2026-04-18 11:42 | 51.55686 | 0.72785 | 20220 ft | 432 kts | 59° |
| 2026-04-18 11:42 | 51.57202 | 0.76975 | 20770 ft | 436 kts | 59° |
| 2026-04-18 11:42 | 51.58214 | 0.79772 | 21099 ft | 438 kts | 59° |